sensor_id;sensor_type;location;lat;lon;timestamp;P1;durP1;ratioP1;P2;durP2;ratioP2
25319;SDS011;13256;49.012;8.610;2023-12-14T00:01:36;11.10;;;4.63;;
25319;SDS011;13256;49.012;8.610;2023-12-14T00:04:08;6.43;;;4.03;;
25319;SDS011;13256;49.012;8.610;2023-12-14T00:06:39;9.40;;;4.70;;
25319;SDS011;13256;49.012;8.610;2023-12-14T00:12:20;6.68;;;2.92;;
25319;SDS011;13256;49.012;8.610;2023-12-14T00:26:52;7.03;;;3.03;;
25319;SDS011;13256;49.012;8.610;2023-12-14T00:34:32;6.53;;;3.38;;
25319;SDS011;13256;49.012;8.610;2023-12-14T00:37:01;5.93;;;2.97;;
25319;SDS011;13256;49.012;8.610;2023-12-14T00:42:27;6.22;;;3.25;;
25319;SDS011;13256;49.012;8.610;2023-12-14T00:44:54;7.43;;;3.67;;
25319;SDS011;13256;49.012;8.610;2023-12-14T00:50:19;5.15;;;2.97;;
25319;SDS011;13256;49.012;8.610;2023-12-14T00:55:53;6.53;;;3.17;;
25319;SDS011;13256;49.012;8.610;2023-12-14T00:58:21;5.15;;;3.35;;
25319;SDS011;13256;49.012;8.610;2023-12-14T01:00:51;9.95;;;4.05;;
25319;SDS011;13256;49.012;8.610;2023-12-14T01:03:21;7.03;;;4.25;;
25319;SDS011;13256;49.012;8.610;2023-12-14T01:05:51;8.02;;;3.88;;
25319;SDS011;13256;49.012;8.610;2023-12-14T01:11:21;7.50;;;4.35;;
25319;SDS011;13256;49.012;8.610;2023-12-14T01:13:53;7.00;;;4.38;;
25319;SDS011;13256;49.012;8.610;2023-12-14T01:16:20;6.13;;;4.00;;
25319;SDS011;13256;49.012;8.610;2023-12-14T01:18:54;9.25;;;4.18;;
25319;SDS011;13256;49.012;8.610;2023-12-14T01:21:21;6.75;;;4.38;;
25319;SDS011;13256;49.012;8.610;2023-12-14T01:30:17;9.05;;;5.00;;
25319;SDS011;13256;49.012;8.610;2023-12-14T01:35:34;9.40;;;5.68;;
25319;SDS011;13256;49.012;8.610;2023-12-14T01:41:07;10.70;;;5.43;;
25319;SDS011;13256;49.012;8.610;2023-12-14T01:43:36;9.07;;;5.07;;
25319;SDS011;13256;49.012;8.610;2023-12-14T01:48:35;8.27;;;5.28;;
25319;SDS011;13256;49.012;8.610;2023-12-14T01:51:04;8.88;;;4.70;;
25319;SDS011;13256;49.012;8.610;2023-12-14T01:53:31;6.65;;;4.25;;
25319;SDS011;13256;49.012;8.610;2023-12-14T01:55:58;9.10;;;4.60;;
25319;SDS011;13256;49.012;8.610;2023-12-14T01:58:26;7.00;;;4.22;;
25319;SDS011;13256;49.012;8.610;2023-12-14T02:03:46;8.32;;;4.80;;
25319;SDS011;13256;49.012;8.610;2023-12-14T02:06:15;7.18;;;4.15;;
25319;SDS011;13256;49.012;8.610;2023-12-14T02:14:24;7.00;;;4.03;;
25319;SDS011;13256;49.012;8.610;2023-12-14T02:19:53;10.25;;;3.90;;
25319;SDS011;13256;49.012;8.610;2023-12-14T02:49:03;6.03;;;3.55;;
25319;SDS011;13256;49.012;8.610;2023-12-14T03:38:49;9.75;;;6.13;;
25319;SDS011;13256;49.012;8.610;2023-12-14T03:47:24;24.15;;;12.80;;
25319;SDS011;13256;49.012;8.610;2023-12-14T04:20:38;20.48;;;10.13;;
25319;SDS011;13256;49.012;8.610;2023-12-14T04:33:14;42.90;;;17.45;;
25319;SDS011;13256;49.012;8.610;2023-12-14T04:45:10;28.98;;;13.98;;
25319;SDS011;13256;49.012;8.610;2023-12-14T04:59:26;26.15;;;12.70;;
25319;SDS011;13256;49.012;8.610;2023-12-14T09:40:39;27.15;;;14.65;;
25319;SDS011;13256;49.012;8.610;2023-12-14T10:30:28;32.28;;;15.80;;
25319;SDS011;13256;49.012;8.610;2023-12-14T10:33:00;25.92;;;13.73;;
25319;SDS011;13256;49.012;8.610;2023-12-14T10:35:29;25.23;;;13.07;;
25319;SDS011;13256;49.012;8.610;2023-12-14T10:38:03;25.20;;;15.10;;
25319;SDS011;13256;49.012;8.610;2023-12-14T10:40:47;22.50;;;13.38;;
25319;SDS011;13256;49.012;8.610;2023-12-14T10:43:15;20.17;;;11.13;;
25319;SDS011;13256;49.012;8.610;2023-12-14T10:45:48;22.38;;;12.30;;
25319;SDS011;13256;49.012;8.610;2023-12-14T10:48:18;20.55;;;10.65;;
25319;SDS011;13256;49.012;8.610;2023-12-14T10:50:51;24.85;;;12.70;;
25319;SDS011;13256;49.012;8.610;2023-12-14T10:53:23;23.42;;;13.85;;
25319;SDS011;13256;49.012;8.610;2023-12-14T10:55:52;20.92;;;12.10;;
25319;SDS011;13256;49.012;8.610;2023-12-14T10:58:24;24.02;;;11.88;;
25319;SDS011;13256;49.012;8.610;2023-12-14T11:01:02;20.13;;;12.23;;
25319;SDS011;13256;49.012;8.610;2023-12-14T11:03:34;20.90;;;10.98;;
25319;SDS011;13256;49.012;8.610;2023-12-14T11:06:02;15.35;;;8.63;;
25319;SDS011;13256;49.012;8.610;2023-12-14T11:08:56;14.85;;;9.02;;
25319;SDS011;13256;49.012;8.610;2023-12-14T11:11:30;17.27;;;10.07;;
25319;SDS011;13256;49.012;8.610;2023-12-14T11:14:10;16.93;;;9.00;;
25319;SDS011;13256;49.012;8.610;2023-12-14T11:16:39;20.95;;;10.40;;
25319;SDS011;13256;49.012;8.610;2023-12-14T11:22:23;23.65;;;9.60;;
25319;SDS011;13256;49.012;8.610;2023-12-14T11:24:52;24.55;;;13.07;;
25319;SDS011;13256;49.012;8.610;2023-12-14T11:27:25;20.58;;;13.07;;
25319;SDS011;13256;49.012;8.610;2023-12-14T11:29:57;20.35;;;11.48;;
25319;SDS011;13256;49.012;8.610;2023-12-14T11:32:26;17.10;;;9.75;;
25319;SDS011;13256;49.012;8.610;2023-12-14T11:34:55;15.68;;;9.30;;
25319;SDS011;13256;49.012;8.610;2023-12-14T11:37:23;18.58;;;9.52;;
25319;SDS011;13256;49.012;8.610;2023-12-14T11:39:51;19.52;;;11.25;;
25319;SDS011;13256;49.012;8.610;2023-12-14T11:42:20;16.10;;;8.70;;
25319;SDS011;13256;49.012;8.610;2023-12-14T11:44:52;17.65;;;8.88;;
25319;SDS011;13256;49.012;8.610;2023-12-14T11:47:19;17.10;;;9.82;;
25319;SDS011;13256;49.012;8.610;2023-12-14T11:49:52;15.15;;;8.90;;
25319;SDS011;13256;49.012;8.610;2023-12-14T11:52:19;17.35;;;10.77;;
25319;SDS011;13256;49.012;8.610;2023-12-14T11:54:48;18.48;;;10.32;;
25319;SDS011;13256;49.012;8.610;2023-12-14T11:57:22;18.63;;;10.40;;
25319;SDS011;13256;49.012;8.610;2023-12-14T11:59:59;21.70;;;11.73;;
25319;SDS011;13256;49.012;8.610;2023-12-14T12:02:26;17.98;;;10.20;;
25319;SDS011;13256;49.012;8.610;2023-12-14T12:04:56;15.73;;;8.63;;
25319;SDS011;13256;49.012;8.610;2023-12-14T12:07:28;20.42;;;9.07;;
25319;SDS011;13256;49.012;8.610;2023-12-14T12:10:29;17.20;;;10.45;;
25319;SDS011;13256;49.012;8.610;2023-12-14T12:13:03;19.00;;;9.90;;
25319;SDS011;13256;49.012;8.610;2023-12-14T12:15:35;18.40;;;9.15;;
25319;SDS011;13256;49.012;8.610;2023-12-14T12:18:09;16.05;;;8.25;;
25319;SDS011;13256;49.012;8.610;2023-12-14T12:20:45;21.27;;;10.50;;
25319;SDS011;13256;49.012;8.610;2023-12-14T12:23:20;20.90;;;11.48;;
25319;SDS011;13256;49.012;8.610;2023-12-14T12:25:47;18.33;;;9.98;;
25319;SDS011;13256;49.012;8.610;2023-12-14T12:28:15;14.55;;;8.52;;
25319;SDS011;13256;49.012;8.610;2023-12-14T12:30:44;18.50;;;9.65;;
25319;SDS011;13256;49.012;8.610;2023-12-14T12:33:11;17.25;;;8.68;;
25319;SDS011;13256;49.012;8.610;2023-12-14T12:35:40;14.63;;;8.35;;
25319;SDS011;13256;49.012;8.610;2023-12-14T12:41:00;15.02;;;8.40;;
25319;SDS011;13256;49.012;8.610;2023-12-14T12:43:33;20.52;;;13.00;;
25319;SDS011;13256;49.012;8.610;2023-12-14T12:46:07;15.38;;;8.40;;
25319;SDS011;13256;49.012;8.610;2023-12-14T12:48:41;18.10;;;10.68;;
25319;SDS011;13256;49.012;8.610;2023-12-14T12:51:11;21.50;;;12.52;;
25319;SDS011;13256;49.012;8.610;2023-12-14T12:53:39;28.10;;;17.70;;
25319;SDS011;13256;49.012;8.610;2023-12-14T12:56:08;24.33;;;10.48;;
25319;SDS011;13256;49.012;8.610;2023-12-14T12:58:44;21.88;;;11.00;;
25319;SDS011;13256;49.012;8.610;2023-12-14T13:01:49;22.27;;;9.68;;
25319;SDS011;13256;49.012;8.610;2023-12-14T13:04:21;18.33;;;9.05;;
25319;SDS011;13256;49.012;8.610;2023-12-14T13:06:55;18.30;;;9.75;;
25319;SDS011;13256;49.012;8.610;2023-12-14T13:09:30;16.05;;;8.75;;
25319;SDS011;13256;49.012;8.610;2023-12-14T13:11:57;18.50;;;9.70;;
25319;SDS011;13256;49.012;8.610;2023-12-14T13:14:31;24.65;;;10.73;;
25319;SDS011;13256;49.012;8.610;2023-12-14T13:17:25;16.00;;;9.10;;
25319;SDS011;13256;49.012;8.610;2023-12-14T13:19:55;19.02;;;9.95;;
25319;SDS011;13256;49.012;8.610;2023-12-14T13:22:24;18.20;;;10.32;;
25319;SDS011;13256;49.012;8.610;2023-12-14T13:24:59;20.10;;;10.23;;
25319;SDS011;13256;49.012;8.610;2023-12-14T13:27:29;23.38;;;10.80;;
25319;SDS011;13256;49.012;8.610;2023-12-14T13:29:55;20.25;;;9.18;;
25319;SDS011;13256;49.012;8.610;2023-12-14T13:32:24;16.50;;;8.43;;
25319;SDS011;13256;49.012;8.610;2023-12-14T13:34:52;15.02;;;8.68;;
25319;SDS011;13256;49.012;8.610;2023-12-14T13:37:19;17.60;;;9.05;;
25319;SDS011;13256;49.012;8.610;2023-12-14T13:40:14;17.08;;;9.50;;
25319;SDS011;13256;49.012;8.610;2023-12-14T13:42:45;18.27;;;9.23;;
25319;SDS011;13256;49.012;8.610;2023-12-14T13:45:32;16.80;;;9.25;;
25319;SDS011;13256;49.012;8.610;2023-12-14T13:50:29;15.38;;;7.68;;
25319;SDS011;13256;49.012;8.610;2023-12-14T13:52:58;16.15;;;7.70;;
25319;SDS011;13256;49.012;8.610;2023-12-14T14:01:20;11.30;;;7.38;;
25319;SDS011;13256;49.012;8.610;2023-12-14T14:03:47;13.43;;;7.28;;
25319;SDS011;13256;49.012;8.610;2023-12-14T14:06:15;13.77;;;7.03;;
25319;SDS011;13256;49.012;8.610;2023-12-14T14:08:42;13.52;;;7.13;;
25319;SDS011;13256;49.012;8.610;2023-12-14T14:23:41;10.02;;;5.80;;
25319;SDS011;13256;49.012;8.610;2023-12-14T14:26:08;9.68;;;6.03;;
25319;SDS011;13256;49.012;8.610;2023-12-14T14:28:36;9.52;;;6.13;;
25319;SDS011;13256;49.012;8.610;2023-12-14T14:31:06;10.75;;;6.60;;
25319;SDS011;13256;49.012;8.610;2023-12-14T14:33:34;9.20;;;5.35;;
25319;SDS011;13256;49.012;8.610;2023-12-14T14:36:04;10.93;;;6.20;;
25319;SDS011;13256;49.012;8.610;2023-12-14T14:38:34;11.05;;;6.07;;
25319;SDS011;13256;49.012;8.610;2023-12-14T14:41:01;9.65;;;5.43;;
25319;SDS011;13256;49.012;8.610;2023-12-14T14:43:32;11.35;;;6.15;;
25319;SDS011;13256;49.012;8.610;2023-12-14T14:46:00;10.05;;;6.05;;
25319;SDS011;13256;49.012;8.610;2023-12-14T14:48:57;12.23;;;6.82;;
25319;SDS011;13256;49.012;8.610;2023-12-14T14:51:27;14.63;;;7.43;;
25319;SDS011;13256;49.012;8.610;2023-12-14T14:53:57;15.27;;;7.20;;
25319;SDS011;13256;49.012;8.610;2023-12-14T14:56:26;12.63;;;7.32;;
25319;SDS011;13256;49.012;8.610;2023-12-14T14:58:56;15.13;;;7.57;;
25319;SDS011;13256;49.012;8.610;2023-12-14T15:01:22;15.30;;;8.00;;
25319;SDS011;13256;49.012;8.610;2023-12-14T15:03:49;15.27;;;8.27;;
25319;SDS011;13256;49.012;8.610;2023-12-14T15:06:17;15.20;;;8.68;;
25319;SDS011;13256;49.012;8.610;2023-12-14T15:08:44;15.23;;;8.60;;
25319;SDS011;13256;49.012;8.610;2023-12-14T15:11:14;16.85;;;8.02;;
25319;SDS011;13256;49.012;8.610;2023-12-14T15:13:46;15.43;;;7.90;;
25319;SDS011;13256;49.012;8.610;2023-12-14T15:16:13;14.07;;;7.35;;
25319;SDS011;13256;49.012;8.610;2023-12-14T15:18:44;16.42;;;8.07;;
25319;SDS011;13256;49.012;8.610;2023-12-14T15:21:11;17.90;;;9.43;;
25319;SDS011;13256;49.012;8.610;2023-12-14T15:23:43;28.48;;;15.13;;
25319;SDS011;13256;49.012;8.610;2023-12-14T15:26:13;26.63;;;12.52;;
25319;SDS011;13256;49.012;8.610;2023-12-14T15:28:42;18.67;;;11.63;;
25319;SDS011;13256;49.012;8.610;2023-12-14T15:31:09;28.05;;;13.65;;
25319;SDS011;13256;49.012;8.610;2023-12-14T15:33:40;24.23;;;12.88;;
25319;SDS011;13256;49.012;8.610;2023-12-14T15:36:07;23.30;;;12.20;;
25319;SDS011;13256;49.012;8.610;2023-12-14T15:38:36;24.85;;;12.10;;
25319;SDS011;13256;49.012;8.610;2023-12-14T15:41:10;17.55;;;9.55;;
25319;SDS011;13256;49.012;8.610;2023-12-14T15:43:44;11.45;;;5.55;;
25319;SDS011;13256;49.012;8.610;2023-12-14T15:46:15;7.40;;;4.45;;
25319;SDS011;13256;49.012;8.610;2023-12-14T15:48:43;10.35;;;4.45;;
25319;SDS011;13256;49.012;8.610;2023-12-14T15:51:10;7.70;;;4.22;;
25319;SDS011;13256;49.012;8.610;2023-12-14T15:53:39;9.75;;;5.35;;
25319;SDS011;13256;49.012;8.610;2023-12-14T15:56:08;4.95;;;3.67;;
25319;SDS011;13256;49.012;8.610;2023-12-14T15:58:35;7.43;;;4.95;;
25319;SDS011;13256;49.012;8.610;2023-12-14T16:01:05;7.47;;;4.40;;
25319;SDS011;13256;49.012;8.610;2023-12-14T16:03:37;10.48;;;5.60;;
25319;SDS011;13256;49.012;8.610;2023-12-14T16:06:04;8.73;;;5.15;;
25319;SDS011;13256;49.012;8.610;2023-12-14T16:08:32;13.57;;;6.05;;
25319;SDS011;13256;49.012;8.610;2023-12-14T16:11:00;13.55;;;7.18;;
25319;SDS011;13256;49.012;8.610;2023-12-14T16:13:30;12.88;;;6.32;;
25319;SDS011;13256;49.012;8.610;2023-12-14T16:15:57;8.25;;;5.18;;
25319;SDS011;13256;49.012;8.610;2023-12-14T16:18:25;13.57;;;4.22;;
25319;SDS011;13256;49.012;8.610;2023-12-14T16:20:52;10.75;;;4.75;;
25319;SDS011;13256;49.012;8.610;2023-12-14T16:23:33;6.65;;;3.80;;
25319;SDS011;13256;49.012;8.610;2023-12-14T16:29:28;7.65;;;3.85;;
25319;SDS011;13256;49.012;8.610;2023-12-14T16:31:56;7.05;;;4.10;;
25319;SDS011;13256;49.012;8.610;2023-12-14T16:34:27;15.20;;;7.18;;
25319;SDS011;13256;49.012;8.610;2023-12-14T16:36:54;15.57;;;8.82;;
25319;SDS011;13256;49.012;8.610;2023-12-14T16:42:23;16.90;;;10.38;;
25319;SDS011;13256;49.012;8.610;2023-12-14T16:45:20;9.82;;;6.80;;
25319;SDS011;13256;49.012;8.610;2023-12-14T16:47:51;8.52;;;6.05;;
25319;SDS011;13256;49.012;8.610;2023-12-14T16:50:20;8.23;;;5.10;;
25319;SDS011;13256;49.012;8.610;2023-12-14T16:55:54;8.30;;;4.95;;
25319;SDS011;13256;49.012;8.610;2023-12-14T16:58:25;11.73;;;5.85;;
25319;SDS011;13256;49.012;8.610;2023-12-14T17:00:56;13.00;;;6.30;;
25319;SDS011;13256;49.012;8.610;2023-12-14T17:03:24;18.60;;;8.95;;
25319;SDS011;13256;49.012;8.610;2023-12-14T17:05:53;19.50;;;8.05;;
25319;SDS011;13256;49.012;8.610;2023-12-14T17:08:20;16.20;;;8.05;;
25319;SDS011;13256;49.012;8.610;2023-12-14T17:10:49;17.80;;;8.70;;
25319;SDS011;13256;49.012;8.610;2023-12-14T17:13:16;16.73;;;7.60;;
25319;SDS011;13256;49.012;8.610;2023-12-14T17:15:46;11.27;;;5.60;;
25319;SDS011;13256;49.012;8.610;2023-12-14T17:21:17;8.45;;;4.57;;
25319;SDS011;13256;49.012;8.610;2023-12-14T17:23:47;9.57;;;4.75;;
25319;SDS011;13256;49.012;8.610;2023-12-14T17:26:15;11.20;;;5.78;;
25319;SDS011;13256;49.012;8.610;2023-12-14T17:29:10;15.35;;;5.72;;
25319;SDS011;13256;49.012;8.610;2023-12-14T17:31:40;13.13;;;6.70;;
25319;SDS011;13256;49.012;8.610;2023-12-14T17:34:22;14.63;;;6.05;;
25319;SDS011;13256;49.012;8.610;2023-12-14T17:36:54;10.82;;;5.40;;
25319;SDS011;13256;49.012;8.610;2023-12-14T17:39:21;11.00;;;5.78;;
25319;SDS011;13256;49.012;8.610;2023-12-14T17:41:51;11.15;;;5.93;;
25319;SDS011;13256;49.012;8.610;2023-12-14T17:44:26;9.80;;;5.30;;
25319;SDS011;13256;49.012;8.610;2023-12-14T17:46:53;10.10;;;5.45;;
25319;SDS011;13256;49.012;8.610;2023-12-14T17:49:22;8.98;;;5.38;;
25319;SDS011;13256;49.012;8.610;2023-12-14T17:51:52;9.02;;;5.35;;
25319;SDS011;13256;49.012;8.610;2023-12-14T17:54:23;11.85;;;6.22;;
25319;SDS011;13256;49.012;8.610;2023-12-14T17:56:57;10.52;;;5.47;;
25319;SDS011;13256;49.012;8.610;2023-12-14T17:59:34;11.98;;;5.40;;
25319;SDS011;13256;49.012;8.610;2023-12-14T18:02:06;14.20;;;6.90;;
25319;SDS011;13256;49.012;8.610;2023-12-14T18:04:41;12.27;;;6.65;;
25319;SDS011;13256;49.012;8.610;2023-12-14T18:07:10;12.10;;;6.38;;
25319;SDS011;13256;49.012;8.610;2023-12-14T18:09:40;10.00;;;5.82;;
25319;SDS011;13256;49.012;8.610;2023-12-14T18:12:07;13.77;;;7.15;;
25319;SDS011;13256;49.012;8.610;2023-12-14T18:14:37;19.83;;;7.57;;
25319;SDS011;13256;49.012;8.610;2023-12-14T18:17:38;13.90;;;7.43;;
25319;SDS011;13256;49.012;8.610;2023-12-14T18:20:05;17.60;;;8.57;;
25319;SDS011;13256;49.012;8.610;2023-12-14T18:22:36;17.58;;;8.57;;
25319;SDS011;13256;49.012;8.610;2023-12-14T18:25:04;13.45;;;7.80;;
25319;SDS011;13256;49.012;8.610;2023-12-14T18:27:33;12.98;;;6.50;;
25319;SDS011;13256;49.012;8.610;2023-12-14T18:30:02;11.35;;;5.82;;
25319;SDS011;13256;49.012;8.610;2023-12-14T18:32:38;13.48;;;7.18;;
25319;SDS011;13256;49.012;8.610;2023-12-14T18:35:06;11.63;;;5.68;;
25319;SDS011;13256;49.012;8.610;2023-12-14T18:37:36;11.10;;;5.72;;
25319;SDS011;13256;49.012;8.610;2023-12-14T18:40:12;9.95;;;5.00;;
25319;SDS011;13256;49.012;8.610;2023-12-14T18:42:45;9.50;;;4.85;;
25319;SDS011;13256;49.012;8.610;2023-12-14T18:45:16;8.45;;;4.72;;
25319;SDS011;13256;49.012;8.610;2023-12-14T18:47:43;8.15;;;4.18;;
25319;SDS011;13256;49.012;8.610;2023-12-14T18:50:11;7.70;;;4.40;;
25319;SDS011;13256;49.012;8.610;2023-12-14T18:52:39;6.97;;;3.95;;
25319;SDS011;13256;49.012;8.610;2023-12-14T18:55:09;5.22;;;3.75;;
25319;SDS011;13256;49.012;8.610;2023-12-14T18:57:38;7.53;;;4.50;;
25319;SDS011;13256;49.012;8.610;2023-12-14T19:00:13;8.25;;;4.75;;
25319;SDS011;13256;49.012;8.610;2023-12-14T19:02:41;7.72;;;4.22;;
25319;SDS011;13256;49.012;8.610;2023-12-14T19:05:08;8.05;;;4.57;;
25319;SDS011;13256;49.012;8.610;2023-12-14T19:10:33;9.90;;;4.40;;
25319;SDS011;13256;49.012;8.610;2023-12-14T19:15:55;10.75;;;4.47;;
25319;SDS011;13256;49.012;8.610;2023-12-14T19:18:25;7.07;;;3.50;;
25319;SDS011;13256;49.012;8.610;2023-12-14T19:21:02;6.50;;;3.92;;
25319;SDS011;13256;49.012;8.610;2023-12-14T19:26:33;9.70;;;4.15;;
25319;SDS011;13256;49.012;8.610;2023-12-14T19:31:59;8.70;;;3.83;;
25319;SDS011;13256;49.012;8.610;2023-12-14T19:37:03;4.95;;;3.33;;
25319;SDS011;13256;49.012;8.610;2023-12-14T19:39:30;6.45;;;3.45;;
25319;SDS011;13256;49.012;8.610;2023-12-14T19:42:00;11.30;;;5.90;;
25319;SDS011;13256;49.012;8.610;2023-12-14T19:44:34;10.00;;;4.57;;
25319;SDS011;13256;49.012;8.610;2023-12-14T19:47:04;9.18;;;4.88;;
25319;SDS011;13256;49.012;8.610;2023-12-14T19:49:34;9.70;;;4.95;;
25319;SDS011;13256;49.012;8.610;2023-12-14T19:52:05;8.98;;;4.57;;
25319;SDS011;13256;49.012;8.610;2023-12-14T19:54:36;7.82;;;4.68;;
25319;SDS011;13256;49.012;8.610;2023-12-14T19:57:12;9.63;;;4.75;;
25319;SDS011;13256;49.012;8.610;2023-12-14T19:59:44;9.15;;;4.50;;
25319;SDS011;13256;49.012;8.610;2023-12-14T20:02:20;6.32;;;3.83;;
25319;SDS011;13256;49.012;8.610;2023-12-14T20:04:55;7.03;;;4.18;;
25319;SDS011;13256;49.012;8.610;2023-12-14T20:07:29;5.70;;;3.20;;
25319;SDS011;13256;49.012;8.610;2023-12-14T20:10:04;4.65;;;2.72;;
25319;SDS011;13256;49.012;8.610;2023-12-14T20:12:34;5.45;;;2.83;;
25319;SDS011;13256;49.012;8.610;2023-12-14T20:15:11;5.00;;;2.47;;
25319;SDS011;13256;49.012;8.610;2023-12-14T20:17:49;9.32;;;3.33;;
25319;SDS011;13256;49.012;8.610;2023-12-14T20:20:19;4.38;;;2.70;;
25319;SDS011;13256;49.012;8.610;2023-12-14T20:22:56;5.35;;;3.15;;
25319;SDS011;13256;49.012;8.610;2023-12-14T20:25:33;5.05;;;2.90;;
25319;SDS011;13256;49.012;8.610;2023-12-14T20:28:04;5.22;;;3.08;;
25319;SDS011;13256;49.012;8.610;2023-12-14T20:30:33;6.72;;;2.88;;
25319;SDS011;13256;49.012;8.610;2023-12-14T20:33:22;6.40;;;3.17;;
25319;SDS011;13256;49.012;8.610;2023-12-14T20:35:56;5.85;;;3.30;;
25319;SDS011;13256;49.012;8.610;2023-12-14T20:38:54;5.45;;;3.30;;
25319;SDS011;13256;49.012;8.610;2023-12-14T20:41:43;6.25;;;3.20;;
25319;SDS011;13256;49.012;8.610;2023-12-14T20:44:14;6.28;;;3.30;;
25319;SDS011;13256;49.012;8.610;2023-12-14T20:46:42;9.30;;;3.63;;
25319;SDS011;13256;49.012;8.610;2023-12-14T20:49:12;7.57;;;3.78;;
25319;SDS011;13256;49.012;8.610;2023-12-14T20:51:39;6.70;;;3.13;;
25319;SDS011;13256;49.012;8.610;2023-12-14T20:54:11;6.25;;;3.40;;
25319;SDS011;13256;49.012;8.610;2023-12-14T20:56:38;7.28;;;3.58;;
25319;SDS011;13256;49.012;8.610;2023-12-14T20:59:05;7.90;;;3.30;;
25319;SDS011;13256;49.012;8.610;2023-12-14T21:01:40;7.97;;;3.58;;
25319;SDS011;13256;49.012;8.610;2023-12-14T21:04:07;6.63;;;3.33;;
25319;SDS011;13256;49.012;8.610;2023-12-14T21:06:40;7.10;;;3.45;;
25319;SDS011;13256;49.012;8.610;2023-12-14T21:09:08;5.43;;;2.85;;
25319;SDS011;13256;49.012;8.610;2023-12-14T21:11:43;3.55;;;2.25;;
25319;SDS011;13256;49.012;8.610;2023-12-14T21:14:28;3.72;;;2.35;;
25319;SDS011;13256;49.012;8.610;2023-12-14T21:17:02;3.55;;;2.78;;
25319;SDS011;13256;49.012;8.610;2023-12-14T21:19:31;4.43;;;2.55;;
25319;SDS011;13256;49.012;8.610;2023-12-14T21:22:07;6.85;;;3.17;;
25319;SDS011;13256;49.012;8.610;2023-12-14T21:24:39;4.68;;;2.78;;
25319;SDS011;13256;49.012;8.610;2023-12-14T21:29:57;3.85;;;2.35;;
25319;SDS011;13256;49.012;8.610;2023-12-14T21:32:26;5.18;;;3.00;;
25319;SDS011;13256;49.012;8.610;2023-12-14T21:37:51;3.70;;;2.50;;
25319;SDS011;13256;49.012;8.610;2023-12-14T21:40:18;4.22;;;2.45;;
25319;SDS011;13256;49.012;8.610;2023-12-14T21:42:53;4.53;;;2.42;;
25319;SDS011;13256;49.012;8.610;2023-12-14T21:45:22;4.03;;;2.30;;
25319;SDS011;13256;49.012;8.610;2023-12-14T21:47:51;5.22;;;2.90;;
25319;SDS011;13256;49.012;8.610;2023-12-14T21:53:17;5.47;;;2.95;;
25319;SDS011;13256;49.012;8.610;2023-12-14T21:55:44;5.35;;;3.13;;
25319;SDS011;13256;49.012;8.610;2023-12-14T21:58:26;7.60;;;3.97;;
25319;SDS011;13256;49.012;8.610;2023-12-14T22:00:53;7.22;;;3.53;;
25319;SDS011;13256;49.012;8.610;2023-12-14T22:03:20;7.32;;;3.85;;
25319;SDS011;13256;49.012;8.610;2023-12-14T22:05:47;6.80;;;3.63;;
25319;SDS011;13256;49.012;8.610;2023-12-14T22:08:17;7.35;;;4.15;;
25319;SDS011;13256;49.012;8.610;2023-12-14T22:10:44;10.07;;;4.60;;
25319;SDS011;13256;49.012;8.610;2023-12-14T22:13:19;10.40;;;5.18;;
25319;SDS011;13256;49.012;8.610;2023-12-14T22:15:49;8.55;;;4.65;;
25319;SDS011;13256;49.012;8.610;2023-12-14T22:18:17;11.63;;;5.15;;
25319;SDS011;13256;49.012;8.610;2023-12-14T22:20:54;8.57;;;4.70;;
25319;SDS011;13256;49.012;8.610;2023-12-14T22:23:24;10.35;;;5.43;;
25319;SDS011;13256;49.012;8.610;2023-12-14T22:25:56;15.95;;;6.13;;
25319;SDS011;13256;49.012;8.610;2023-12-14T22:28:23;19.77;;;6.70;;
25319;SDS011;13256;49.012;8.610;2023-12-14T22:30:53;14.90;;;5.90;;
25319;SDS011;13256;49.012;8.610;2023-12-14T22:35:53;9.60;;;4.75;;
25319;SDS011;13256;49.012;8.610;2023-12-14T22:38:31;8.10;;;3.95;;
25319;SDS011;13256;49.012;8.610;2023-12-14T22:41:02;8.43;;;4.03;;
25319;SDS011;13256;49.012;8.610;2023-12-14T22:43:30;7.57;;;3.72;;
25319;SDS011;13256;49.012;8.610;2023-12-14T22:45:59;8.27;;;4.00;;
25319;SDS011;13256;49.012;8.610;2023-12-14T22:49:07;7.65;;;3.92;;
25319;SDS011;13256;49.012;8.610;2023-12-14T22:51:38;7.45;;;3.90;;
25319;SDS011;13256;49.012;8.610;2023-12-14T22:54:10;7.65;;;3.53;;
25319;SDS011;13256;49.012;8.610;2023-12-14T22:56:39;7.75;;;4.25;;
25319;SDS011;13256;49.012;8.610;2023-12-14T22:59:08;9.48;;;4.03;;
25319;SDS011;13256;49.012;8.610;2023-12-14T23:01:38;8.02;;;3.67;;
25319;SDS011;13256;49.012;8.610;2023-12-14T23:04:09;7.38;;;3.42;;
25319;SDS011;13256;49.012;8.610;2023-12-14T23:06:36;7.63;;;3.88;;
25319;SDS011;13256;49.012;8.610;2023-12-14T23:09:05;6.93;;;3.72;;
25319;SDS011;13256;49.012;8.610;2023-12-14T23:15:02;6.53;;;3.88;;
25319;SDS011;13256;49.012;8.610;2023-12-14T23:20:06;8.20;;;4.20;;
25319;SDS011;13256;49.012;8.610;2023-12-14T23:22:36;8.77;;;4.13;;
25319;SDS011;13256;49.012;8.610;2023-12-14T23:25:05;8.18;;;4.00;;
25319;SDS011;13256;49.012;8.610;2023-12-14T23:27:37;8.15;;;4.43;;
25319;SDS011;13256;49.012;8.610;2023-12-14T23:30:09;8.85;;;4.22;;
25319;SDS011;13256;49.012;8.610;2023-12-14T23:32:38;9.02;;;4.35;;
25319;SDS011;13256;49.012;8.610;2023-12-14T23:35:14;7.55;;;3.92;;
25319;SDS011;13256;49.012;8.610;2023-12-14T23:37:42;8.93;;;4.80;;
25319;SDS011;13256;49.012;8.610;2023-12-14T23:40:10;9.80;;;4.75;;
25319;SDS011;13256;49.012;8.610;2023-12-14T23:42:40;8.25;;;4.53;;
25319;SDS011;13256;49.012;8.610;2023-12-14T23:45:07;7.50;;;4.00;;
25319;SDS011;13256;49.012;8.610;2023-12-14T23:47:34;8.45;;;4.07;;
25319;SDS011;13256;49.012;8.610;2023-12-14T23:50:05;11.52;;;4.82;;
25319;SDS011;13256;49.012;8.610;2023-12-14T23:52:33;8.30;;;4.13;;
